Crosswicks, New Jersey
Current Conditions -  °F | °C
As of 7:58 PM on Thursday 27 Nov 2014 (Local Time) from KWRI Reporting Station
Few Clouds Few Clouds  
Wind Chill: 28°   Ceiling: Unl
Heat Index: 34°   Visibility: 10mi
Dew Point: 28°   Wind: 6mph
Humidity: 79%   Direction: 290°WNW
Pressure: 30.05"   Gusts: NA
Location:  40.15°N, 74.65°W
Report Text: KWRI 280058Z AUTO 29005KT 10SM FEW047 01/M02 A3005 RMK AO2 SLP180 T00091024
Loading
Personal Weather Stations






























Interactive Weather Map New forecast layout! Learn more

10-Day Weather Forecast

Advertisements
Track Severe Weather on mobile